sensor_id;sensor_type;location;lat;lon;timestamp;temperature;humidity
13472;DHT22;6808;49.444;11.034;2023-12-04T00:00:59;-5.40;99.90
13472;DHT22;6808;49.444;11.034;2023-12-04T00:03:25;-5.40;99.90
13472;DHT22;6808;49.444;11.034;2023-12-04T00:05:51;-5.30;99.90
13472;DHT22;6808;49.444;11.034;2023-12-04T00:08:16;-5.40;99.90
13472;DHT22;6808;49.444;11.034;2023-12-04T00:10:42;-5.30;99.90
13472;DHT22;6808;49.444;11.034;2023-12-04T00:13:07;-5.30;99.90
13472;DHT22;6808;49.444;11.034;2023-12-04T00:15:33;-5.30;99.90
13472;DHT22;6808;49.444;11.034;2023-12-04T00:17:58;-5.30;99.90
13472;DHT22;6808;49.444;11.034;2023-12-04T00:20:24;-5.30;99.90
13472;DHT22;6808;49.444;11.034;2023-12-04T00:22:49;-5.30;99.90
13472;DHT22;6808;49.444;11.034;2023-12-04T00:25:15;-5.40;99.90
13472;DHT22;6808;49.444;11.034;2023-12-04T00:27:41;-5.30;99.90
13472;DHT22;6808;49.444;11.034;2023-12-04T00:30:06;-5.30;99.90
13472;DHT22;6808;49.444;11.034;2023-12-04T00:32:32;-5.30;99.90
13472;DHT22;6808;49.444;11.034;2023-12-04T00:34:58;-5.40;99.90
13472;DHT22;6808;49.444;11.034;2023-12-04T00:37:23;-5.30;99.90
13472;DHT22;6808;49.444;11.034;2023-12-04T00:39:49;-5.30;99.90
13472;DHT22;6808;49.444;11.034;2023-12-04T00:42:15;-5.30;99.90
13472;DHT22;6808;49.444;11.034;2023-12-04T00:44:41;-5.40;99.90
13472;DHT22;6808;49.444;11.034;2023-12-04T00:47:07;-5.30;99.90
13472;DHT22;6808;49.444;11.034;2023-12-04T00:49:33;-5.30;99.90
13472;DHT22;6808;49.444;11.034;2023-12-04T00:51:58;-5.30;99.90
13472;DHT22;6808;49.444;11.034;2023-12-04T00:54:24;-5.30;99.90
13472;DHT22;6808;49.444;11.034;2023-12-04T00:56:49;-5.30;99.90
13472;DHT22;6808;49.444;11.034;2023-12-04T00:59:15;-5.30;99.90
13472;DHT22;6808;49.444;11.034;2023-12-04T01:01:40;-5.30;99.90
13472;DHT22;6808;49.444;11.034;2023-12-04T01:04:06;-5.30;99.90
13472;DHT22;6808;49.444;11.034;2023-12-04T01:06:32;-5.40;99.90
13472;DHT22;6808;49.444;11.034;2023-12-04T01:08:57;-5.40;99.90
13472;DHT22;6808;49.444;11.034;2023-12-04T01:11:23;-5.40;99.90
13472;DHT22;6808;49.444;11.034;2023-12-04T01:13:49;-5.40;99.90
13472;DHT22;6808;49.444;11.034;2023-12-04T01:16:15;-5.40;99.90
13472;DHT22;6808;49.444;11.034;2023-12-04T01:18:41;-5.40;99.90
13472;DHT22;6808;49.444;11.034;2023-12-04T01:21:07;-5.40;99.90
13472;DHT22;6808;49.444;11.034;2023-12-04T01:23:35;-4.80;99.90
13472;DHT22;6808;49.444;11.034;2023-12-04T01:26:01;-5.40;99.90
13472;DHT22;6808;49.444;11.034;2023-12-04T01:28:26;-5.50;99.90
13472;DHT22;6808;49.444;11.034;2023-12-04T01:30:52;-5.50;99.90
13472;DHT22;6808;49.444;11.034;2023-12-04T01:33:18;-5.50;99.90
13472;DHT22;6808;49.444;11.034;2023-12-04T01:35:43;-5.50;99.90
13472;DHT22;6808;49.444;11.034;2023-12-04T01:38:09;-5.50;99.90
13472;DHT22;6808;49.444;11.034;2023-12-04T01:40:34;-5.40;99.90
13472;DHT22;6808;49.444;11.034;2023-12-04T01:43:00;-5.50;99.90
13472;DHT22;6808;49.444;11.034;2023-12-04T01:45:26;-5.40;99.90
13472;DHT22;6808;49.444;11.034;2023-12-04T01:47:51;-5.40;99.90
13472;DHT22;6808;49.444;11.034;2023-12-04T01:50:17;-5.40;99.90
13472;DHT22;6808;49.444;11.034;2023-12-04T01:52:43;-5.40;99.90
13472;DHT22;6808;49.444;11.034;2023-12-04T01:55:09;-5.40;99.90
13472;DHT22;6808;49.444;11.034;2023-12-04T01:57:35;-5.40;99.90
13472;DHT22;6808;49.444;11.034;2023-12-04T02:00:01;-5.40;99.90
13472;DHT22;6808;49.444;11.034;2023-12-04T02:02:29;-5.40;99.90
13472;DHT22;6808;49.444;11.034;2023-12-04T02:04:55;-5.40;99.90
13472;DHT22;6808;49.444;11.034;2023-12-04T02:07:23;-5.40;99.90
13472;DHT22;6808;49.444;11.034;2023-12-04T02:09:49;-5.40;99.90
13472;DHT22;6808;49.444;11.034;2023-12-04T02:12:15;-5.40;99.90
13472;DHT22;6808;49.444;11.034;2023-12-04T02:14:40;-5.50;99.90
13472;DHT22;6808;49.444;11.034;2023-12-04T02:17:06;-5.50;99.90
13472;DHT22;6808;49.444;11.034;2023-12-04T02:22:55;-5.50;99.90
13472;DHT22;6808;49.444;11.034;2023-12-04T02:25:21;-5.40;99.90
13472;DHT22;6808;49.444;11.034;2023-12-04T02:27:50;-5.40;99.90
13472;DHT22;6808;49.444;11.034;2023-12-04T02:30:18;-5.40;99.90
13472;DHT22;6808;49.444;11.034;2023-12-04T02:32:46;-5.40;99.90
13472;DHT22;6808;49.444;11.034;2023-12-04T02:35:14;-5.40;99.90
13472;DHT22;6808;49.444;11.034;2023-12-04T02:37:41;-5.40;99.90
13472;DHT22;6808;49.444;11.034;2023-12-04T02:40:07;-5.40;99.90
13472;DHT22;6808;49.444;11.034;2023-12-04T02:42:33;-5.40;99.90
13472;DHT22;6808;49.444;11.034;2023-12-04T02:44:58;-5.30;99.90
13472;DHT22;6808;49.444;11.034;2023-12-04T02:47:24;-5.30;99.90
13472;DHT22;6808;49.444;11.034;2023-12-04T02:49:49;-5.30;99.90
13472;DHT22;6808;49.444;11.034;2023-12-04T02:52:15;-5.30;99.90
13472;DHT22;6808;49.444;11.034;2023-12-04T02:54:41;-5.20;99.90
13472;DHT22;6808;49.444;11.034;2023-12-04T02:57:06;-5.20;99.90
13472;DHT22;6808;49.444;11.034;2023-12-04T02:59:32;-4.70;99.90
13472;DHT22;6808;49.444;11.034;2023-12-04T03:01:57;-5.20;99.90
13472;DHT22;6808;49.444;11.034;2023-12-04T03:04:23;-5.20;99.90
13472;DHT22;6808;49.444;11.034;2023-12-04T03:06:48;-5.20;99.90
13472;DHT22;6808;49.444;11.034;2023-12-04T03:09:14;-5.30;99.90
13472;DHT22;6808;49.444;11.034;2023-12-04T03:11:40;-4.70;99.90
13472;DHT22;6808;49.444;11.034;2023-12-04T03:14:06;-5.30;99.90
13472;DHT22;6808;49.444;11.034;2023-12-04T03:16:32;-5.30;99.90
13472;DHT22;6808;49.444;11.034;2023-12-04T03:18:58;-5.20;99.90
13472;DHT22;6808;49.444;11.034;2023-12-04T03:21:23;-5.20;99.90
13472;DHT22;6808;49.444;11.034;2023-12-04T03:23:49;-5.20;99.90
13472;DHT22;6808;49.444;11.034;2023-12-04T03:26:14;-4.70;99.90
13472;DHT22;6808;49.444;11.034;2023-12-04T03:28:40;-4.60;99.90
13472;DHT22;6808;49.444;11.034;2023-12-04T03:31:06;-5.20;99.90
13472;DHT22;6808;49.444;11.034;2023-12-04T03:33:31;-5.20;99.90
13472;DHT22;6808;49.444;11.034;2023-12-04T03:35:59;-5.20;99.90
13472;DHT22;6808;49.444;11.034;2023-12-04T03:38:24;-5.20;99.90
13472;DHT22;6808;49.444;11.034;2023-12-04T03:40:50;-5.20;99.90
13472;DHT22;6808;49.444;11.034;2023-12-04T03:43:16;-5.10;99.90
13472;DHT22;6808;49.444;11.034;2023-12-04T03:45:41;-5.20;99.90
13472;DHT22;6808;49.444;11.034;2023-12-04T03:48:07;-5.20;99.90
13472;DHT22;6808;49.444;11.034;2023-12-04T03:50:32;-5.00;99.90
13472;DHT22;6808;49.444;11.034;2023-12-04T03:52:58;-5.00;99.90
13472;DHT22;6808;49.444;11.034;2023-12-04T03:55:23;-5.20;99.90
13472;DHT22;6808;49.444;11.034;2023-12-04T03:57:49;-5.30;99.90
13472;DHT22;6808;49.444;11.034;2023-12-04T04:00:15;-5.40;99.90
13472;DHT22;6808;49.444;11.034;2023-12-04T04:02:43;-5.40;99.90
13472;DHT22;6808;49.444;11.034;2023-12-04T04:05:09;-5.40;99.90
13472;DHT22;6808;49.444;11.034;2023-12-04T04:07:34;-5.40;99.90
13472;DHT22;6808;49.444;11.034;2023-12-04T04:10:00;-4.70;99.90
13472;DHT22;6808;49.444;11.034;2023-12-04T04:12:27;-5.40;99.90
13472;DHT22;6808;49.444;11.034;2023-12-04T04:14:52;-5.30;99.90
13472;DHT22;6808;49.444;11.034;2023-12-04T04:17:18;-5.10;99.90
13472;DHT22;6808;49.444;11.034;2023-12-04T04:19:44;-5.40;99.90
13472;DHT22;6808;49.444;11.034;2023-12-04T04:22:09;-5.40;99.90
13472;DHT22;6808;49.444;11.034;2023-12-04T04:24:35;-4.60;99.90
13472;DHT22;6808;49.444;11.034;2023-12-04T04:27:00;-4.80;99.90
13472;DHT22;6808;49.444;11.034;2023-12-04T04:29:26;-5.40;99.90
13472;DHT22;6808;49.444;11.034;2023-12-04T04:31:51;-4.50;99.90
13472;DHT22;6808;49.444;11.034;2023-12-04T04:34:17;-5.50;99.90
13472;DHT22;6808;49.444;11.034;2023-12-04T04:36:43;-4.50;99.90
13472;DHT22;6808;49.444;11.034;2023-12-04T04:39:12;-5.50;99.90
13472;DHT22;6808;49.444;11.034;2023-12-04T04:41:38;-4.80;99.90
13472;DHT22;6808;49.444;11.034;2023-12-04T04:44:04;-5.40;99.90
13472;DHT22;6808;49.444;11.034;2023-12-04T04:46:30;-4.70;99.90
13472;DHT22;6808;49.444;11.034;2023-12-04T04:48:56;-4.50;99.90
13472;DHT22;6808;49.444;11.034;2023-12-04T04:51:22;-5.40;99.90
13472;DHT22;6808;49.444;11.034;2023-12-04T04:53:49;-4.60;99.90
13472;DHT22;6808;49.444;11.034;2023-12-04T04:56:15;-5.40;99.90
13472;DHT22;6808;49.444;11.034;2023-12-04T04:58:40;-5.30;99.90
13472;DHT22;6808;49.444;11.034;2023-12-04T05:01:07;-5.30;99.90
13472;DHT22;6808;49.444;11.034;2023-12-04T05:03:33;-5.30;99.90
13472;DHT22;6808;49.444;11.034;2023-12-04T05:05:58;-5.30;99.90
13472;DHT22;6808;49.444;11.034;2023-12-04T05:08:24;-5.30;99.90
13472;DHT22;6808;49.444;11.034;2023-12-04T05:10:49;-5.30;99.90
13472;DHT22;6808;49.444;11.034;2023-12-04T05:13:15;-4.40;99.90
13472;DHT22;6808;49.444;11.034;2023-12-04T05:15:40;-4.70;99.90
13472;DHT22;6808;49.444;11.034;2023-12-04T05:18:06;-4.80;99.90
13472;DHT22;6808;49.444;11.034;2023-12-04T05:20:31;-5.50;99.90
13472;DHT22;6808;49.444;11.034;2023-12-04T05:22:57;-4.60;99.90
13472;DHT22;6808;49.444;11.034;2023-12-04T05:25:23;-5.40;99.90
13472;DHT22;6808;49.444;11.034;2023-12-04T05:27:48;-4.70;99.90
13472;DHT22;6808;49.444;11.034;2023-12-04T05:30:14;-5.40;99.90
13472;DHT22;6808;49.444;11.034;2023-12-04T05:32:40;-4.70;99.90
13472;DHT22;6808;49.444;11.034;2023-12-04T05:35:05;-5.40;99.90
13472;DHT22;6808;49.444;11.034;2023-12-04T05:37:31;-5.40;99.90
13472;DHT22;6808;49.444;11.034;2023-12-04T05:39:57;-5.40;99.90
13472;DHT22;6808;49.444;11.034;2023-12-04T05:42:23;-5.30;99.90
13472;DHT22;6808;49.444;11.034;2023-12-04T05:44:49;-5.40;99.90
13472;DHT22;6808;49.444;11.034;2023-12-04T05:47:14;-5.30;99.90
13472;DHT22;6808;49.444;11.034;2023-12-04T05:49:40;-4.90;99.90
13472;DHT22;6808;49.444;11.034;2023-12-04T05:52:06;-5.30;99.90
13472;DHT22;6808;49.444;11.034;2023-12-04T05:54:32;-5.40;99.90
13472;DHT22;6808;49.444;11.034;2023-12-04T05:56:57;-5.30;99.90
13472;DHT22;6808;49.444;11.034;2023-12-04T05:59:23;-4.50;99.90
13472;DHT22;6808;49.444;11.034;2023-12-04T06:01:49;-5.30;99.90
13472;DHT22;6808;49.444;11.034;2023-12-04T06:04:14;-5.30;99.90
13472;DHT22;6808;49.444;11.034;2023-12-04T06:06:40;-5.30;99.90
13472;DHT22;6808;49.444;11.034;2023-12-04T06:09:05;-4.80;99.90
13472;DHT22;6808;49.444;11.034;2023-12-04T06:11:31;-4.60;99.90
13472;DHT22;6808;49.444;11.034;2023-12-04T06:13:57;-5.20;99.90
13472;DHT22;6808;49.444;11.034;2023-12-04T06:16:23;-5.20;99.90
13472;DHT22;6808;49.444;11.034;2023-12-04T06:18:49;-4.80;99.90
13472;DHT22;6808;49.444;11.034;2023-12-04T06:21:14;-5.10;99.90
13472;DHT22;6808;49.444;11.034;2023-12-04T06:23:40;-5.20;99.90
13472;DHT22;6808;49.444;11.034;2023-12-04T06:26:06;-5.20;99.90
13472;DHT22;6808;49.444;11.034;2023-12-04T06:28:32;-5.20;99.90
13472;DHT22;6808;49.444;11.034;2023-12-04T06:30:58;-5.20;99.90
13472;DHT22;6808;49.444;11.034;2023-12-04T06:33:24;-5.20;99.90
13472;DHT22;6808;49.444;11.034;2023-12-04T06:35:50;-5.20;99.90
13472;DHT22;6808;49.444;11.034;2023-12-04T06:38:16;-5.20;99.90
13472;DHT22;6808;49.444;11.034;2023-12-04T06:40:42;-4.80;99.90
13472;DHT22;6808;49.444;11.034;2023-12-04T06:43:08;-5.20;99.90
13472;DHT22;6808;49.444;11.034;2023-12-04T06:45:34;-5.20;99.90
13472;DHT22;6808;49.444;11.034;2023-12-04T06:48:00;-5.10;99.90
13472;DHT22;6808;49.444;11.034;2023-12-04T06:50:26;-5.10;99.90
13472;DHT22;6808;49.444;11.034;2023-12-04T06:52:52;-5.10;99.90
13472;DHT22;6808;49.444;11.034;2023-12-04T06:55:17;-4.60;99.90
13472;DHT22;6808;49.444;11.034;2023-12-04T06:57:43;-5.20;99.90
13472;DHT22;6808;49.444;11.034;2023-12-04T07:00:09;-4.30;99.90
13472;DHT22;6808;49.444;11.034;2023-12-04T07:02:39;-5.20;99.90
13472;DHT22;6808;49.444;11.034;2023-12-04T07:05:05;-5.10;99.90
13472;DHT22;6808;49.444;11.034;2023-12-04T07:07:31;-5.10;99.90
13472;DHT22;6808;49.444;11.034;2023-12-04T07:09:57;-5.00;99.90
13472;DHT22;6808;49.444;11.034;2023-12-04T07:12:22;-5.00;99.90
13472;DHT22;6808;49.444;11.034;2023-12-04T07:14:48;-5.00;99.90
13472;DHT22;6808;49.444;11.034;2023-12-04T07:17:13;-4.40;99.90
13472;DHT22;6808;49.444;11.034;2023-12-04T07:19:41;-4.90;99.90
13472;DHT22;6808;49.444;11.034;2023-12-04T07:22:07;-4.90;99.90
13472;DHT22;6808;49.444;11.034;2023-12-04T07:24:32;-4.90;99.90
13472;DHT22;6808;49.444;11.034;2023-12-04T07:26:58;-4.90;99.90
13472;DHT22;6808;49.444;11.034;2023-12-04T07:29:24;-4.10;99.90
13472;DHT22;6808;49.444;11.034;2023-12-04T07:31:50;-4.80;99.90
13472;DHT22;6808;49.444;11.034;2023-12-04T07:34:15;-4.20;99.90
13472;DHT22;6808;49.444;11.034;2023-12-04T07:36:41;-4.80;99.90
13472;DHT22;6808;49.444;11.034;2023-12-04T07:39:06;-3.80;99.90
13472;DHT22;6808;49.444;11.034;2023-12-04T07:41:32;-4.70;99.90
13472;DHT22;6808;49.444;11.034;2023-12-04T07:43:58;-4.70;99.90
13472;DHT22;6808;49.444;11.034;2023-12-04T07:46:23;-4.70;99.90
13472;DHT22;6808;49.444;11.034;2023-12-04T07:48:49;-3.90;99.90
13472;DHT22;6808;49.444;11.034;2023-12-04T07:51:14;-4.60;99.90
13472;DHT22;6808;49.444;11.034;2023-12-04T07:53:40;-4.60;99.90
13472;DHT22;6808;49.444;11.034;2023-12-04T07:56:06;-4.50;99.90
13472;DHT22;6808;49.444;11.034;2023-12-04T07:58:32;-4.50;99.90
13472;DHT22;6808;49.444;11.034;2023-12-04T08:00:58;-4.50;99.90
13472;DHT22;6808;49.444;11.034;2023-12-04T08:03:23;-3.90;99.90
13472;DHT22;6808;49.444;11.034;2023-12-04T08:05:50;-3.60;99.90
13472;DHT22;6808;49.444;11.034;2023-12-04T08:08:16;-4.30;99.90
13472;DHT22;6808;49.444;11.034;2023-12-04T08:10:42;-3.70;99.90
13472;DHT22;6808;49.444;11.034;2023-12-04T08:13:07;-4.30;99.90
13472;DHT22;6808;49.444;11.034;2023-12-04T08:15:33;-4.20;99.90
13472;DHT22;6808;49.444;11.034;2023-12-04T08:17:58;-4.20;99.90
13472;DHT22;6808;49.444;11.034;2023-12-04T08:20:26;-4.20;99.90
13472;DHT22;6808;49.444;11.034;2023-12-04T08:22:51;-3.40;99.90
13472;DHT22;6808;49.444;11.034;2023-12-04T08:25:17;-4.10;99.90
13472;DHT22;6808;49.444;11.034;2023-12-04T08:27:42;-4.10;99.90
13472;DHT22;6808;49.444;11.034;2023-12-04T08:30:08;-3.30;99.90
13472;DHT22;6808;49.444;11.034;2023-12-04T08:32:34;-4.00;99.90
13472;DHT22;6808;49.444;11.034;2023-12-04T08:34:59;-3.90;99.80
13472;DHT22;6808;49.444;11.034;2023-12-04T08:37:25;-3.90;99.70
13472;DHT22;6808;49.444;11.034;2023-12-04T08:39:51;-3.20;99.90
13472;DHT22;6808;49.444;11.034;2023-12-04T08:42:16;-3.80;99.70
13472;DHT22;6808;49.444;11.034;2023-12-04T08:44:42;-3.20;99.90
13472;DHT22;6808;49.444;11.034;2023-12-04T08:47:08;-3.10;99.90
13472;DHT22;6808;49.444;11.034;2023-12-04T08:49:33;-3.70;99.60
13472;DHT22;6808;49.444;11.034;2023-12-04T08:51:59;-3.30;99.70
13472;DHT22;6808;49.444;11.034;2023-12-04T08:54:25;-3.70;99.40
13472;DHT22;6808;49.444;11.034;2023-12-04T08:56:50;-3.60;99.40
13472;DHT22;6808;49.444;11.034;2023-12-04T08:59:16;-3.60;99.30
13472;DHT22;6808;49.444;11.034;2023-12-04T09:01:42;-3.30;99.30
13472;DHT22;6808;49.444;11.034;2023-12-04T09:04:09;-3.50;99.20
13472;DHT22;6808;49.444;11.034;2023-12-04T09:06:35;-3.50;99.20
13472;DHT22;6808;49.444;11.034;2023-12-04T09:09:01;-3.50;99.20
13472;DHT22;6808;49.444;11.034;2023-12-04T09:11:27;-3.40;99.40
13472;DHT22;6808;49.444;11.034;2023-12-04T09:13:53;-3.40;99.20
13472;DHT22;6808;49.444;11.034;2023-12-04T09:16:19;-3.30;99.10
13472;DHT22;6808;49.444;11.034;2023-12-04T09:18:45;-3.30;99.20
13472;DHT22;6808;49.444;11.034;2023-12-04T09:21:11;-3.30;99.00
13472;DHT22;6808;49.444;11.034;2023-12-04T09:23:37;-3.20;99.00
13472;DHT22;6808;49.444;11.034;2023-12-04T09:26:02;-3.20;99.00
13472;DHT22;6808;49.444;11.034;2023-12-04T09:28:28;-3.20;98.60
13472;DHT22;6808;49.444;11.034;2023-12-04T09:30:54;-3.10;98.90
13472;DHT22;6808;49.444;11.034;2023-12-04T09:33:19;-3.10;98.80
13472;DHT22;6808;49.444;11.034;2023-12-04T09:35:45;-3.10;98.60
13472;DHT22;6808;49.444;11.034;2023-12-04T09:38:10;-3.00;98.50
13472;DHT22;6808;49.444;11.034;2023-12-04T09:40:36;-3.00;98.50
13472;DHT22;6808;49.444;11.034;2023-12-04T09:43:03;-3.00;98.40
13472;DHT22;6808;49.444;11.034;2023-12-04T09:45:32;-2.90;98.30
13472;DHT22;6808;49.444;11.034;2023-12-04T09:47:58;-2.90;98.20
13472;DHT22;6808;49.444;11.034;2023-12-04T09:50:24;-2.90;98.50
13472;DHT22;6808;49.444;11.034;2023-12-04T09:52:50;-2.90;97.90
13472;DHT22;6808;49.444;11.034;2023-12-04T09:55:16;-2.80;98.00
13472;DHT22;6808;49.444;11.034;2023-12-04T09:57:44;-2.80;98.10
13472;DHT22;6808;49.444;11.034;2023-12-04T10:00:12;-2.70;98.20
13472;DHT22;6808;49.444;11.034;2023-12-04T10:02:39;-2.80;98.20
13472;DHT22;6808;49.444;11.034;2023-12-04T10:05:05;-2.70;98.10
13472;DHT22;6808;49.444;11.034;2023-12-04T10:07:31;-2.70;98.10
13472;DHT22;6808;49.444;11.034;2023-12-04T10:09:57;-2.70;98.10
13472;DHT22;6808;49.444;11.034;2023-12-04T10:12:22;-2.60;98.10
13472;DHT22;6808;49.444;11.034;2023-12-04T10:17:35;-2.60;98.50
13472;DHT22;6808;49.444;11.034;2023-12-04T10:20:09;-2.60;98.50
13472;DHT22;6808;49.444;11.034;2023-12-04T10:22:39;-2.60;98.50
13472;DHT22;6808;49.444;11.034;2023-12-04T10:25:17;-2.10;98.90
13472;DHT22;6808;49.444;11.034;2023-12-04T10:27:46;-2.50;98.60
13472;DHT22;6808;49.444;11.034;2023-12-04T10:30:30;-2.00;98.60
13472;DHT22;6808;49.444;11.034;2023-12-04T10:32:57;-2.10;98.10
13472;DHT22;6808;49.444;11.034;2023-12-04T10:35:29;-2.50;98.00
13472;DHT22;6808;49.444;11.034;2023-12-04T10:37:58;-2.60;97.90
13472;DHT22;6808;49.444;11.034;2023-12-04T10:40:28;-2.60;98.10
13472;DHT22;6808;49.444;11.034;2023-12-04T10:43:16;-2.10;98.80
13472;DHT22;6808;49.444;11.034;2023-12-04T10:45:44;-2.50;98.50
13472;DHT22;6808;49.444;11.034;2023-12-04T10:48:11;-1.90;98.80
13472;DHT22;6808;49.444;11.034;2023-12-04T10:50:38;-2.40;98.20
13472;DHT22;6808;49.444;11.034;2023-12-04T10:53:05;-2.40;98.10
13472;DHT22;6808;49.444;11.034;2023-12-04T10:55:31;-1.70;98.60
13472;DHT22;6808;49.444;11.034;2023-12-04T10:57:59;-2.20;98.20
13472;DHT22;6808;49.444;11.034;2023-12-04T11:00:26;-3.00;98.00
13472;DHT22;6808;49.444;11.034;2023-12-04T11:02:55;-1.70;98.70
13472;DHT22;6808;49.444;11.034;2023-12-04T11:05:24;-1.40;98.80
13472;DHT22;6808;49.444;11.034;2023-12-04T11:08:01;-1.50;98.30
13472;DHT22;6808;49.444;11.034;2023-12-04T11:10:29;-1.60;98.40
13472;DHT22;6808;49.444;11.034;2023-12-04T11:13:02;-2.20;98.00
13472;DHT22;6808;49.444;11.034;2023-12-04T11:15:35;-2.20;98.40
13472;DHT22;6808;49.444;11.034;2023-12-04T11:18:03;-1.50;98.90
13472;DHT22;6808;49.444;11.034;2023-12-04T11:20:31;-2.10;98.50
13472;DHT22;6808;49.444;11.034;2023-12-04T11:22:59;-2.00;98.60
13472;DHT22;6808;49.444;11.034;2023-12-04T11:25:26;-1.40;98.70
13472;DHT22;6808;49.444;11.034;2023-12-04T11:27:54;-1.90;98.00
13472;DHT22;6808;49.444;11.034;2023-12-04T11:30:20;-1.40;98.40
13472;DHT22;6808;49.444;11.034;2023-12-04T11:32:48;-1.90;98.10
13472;DHT22;6808;49.444;11.034;2023-12-04T11:35:18;-1.30;98.40
13472;DHT22;6808;49.444;11.034;2023-12-04T11:37:46;-1.60;98.30
13472;DHT22;6808;49.444;11.034;2023-12-04T11:40:14;-1.70;98.50
13472;DHT22;6808;49.444;11.034;2023-12-04T11:42:41;-1.80;98.10
13472;DHT22;6808;49.444;11.034;2023-12-04T11:45:08;-1.10;98.40
13472;DHT22;6808;49.444;11.034;2023-12-04T11:47:56;-1.80;98.10
13472;DHT22;6808;49.444;11.034;2023-12-04T11:50:24;-1.90;98.10
13472;DHT22;6808;49.444;11.034;2023-12-04T11:52:50;-1.80;98.20
13472;DHT22;6808;49.444;11.034;2023-12-04T11:55:18;-1.20;98.60
13472;DHT22;6808;49.444;11.034;2023-12-04T11:57:45;-1.50;98.70
13472;DHT22;6808;49.444;11.034;2023-12-04T12:02:41;-1.80;98.60
13472;DHT22;6808;49.444;11.034;2023-12-04T12:05:06;-1.80;98.50
13472;DHT22;6808;49.444;11.034;2023-12-04T12:07:35;-0.80;99.00
13472;DHT22;6808;49.444;11.034;2023-12-04T12:10:01;-1.80;98.60
13472;DHT22;6808;49.444;11.034;2023-12-04T12:12:28;-1.80;98.50
13472;DHT22;6808;49.444;11.034;2023-12-04T12:14:53;-1.80;98.70
13472;DHT22;6808;49.444;11.034;2023-12-04T12:17:19;-1.20;99.10
13472;DHT22;6808;49.444;11.034;2023-12-04T12:19:45;-1.80;98.90
13472;DHT22;6808;49.444;11.034;2023-12-04T12:22:11;-1.80;99.00
13472;DHT22;6808;49.444;11.034;2023-12-04T12:24:37;-1.80;99.10
13472;DHT22;6808;49.444;11.034;2023-12-04T12:27:03;-1.80;98.90
13472;DHT22;6808;49.444;11.034;2023-12-04T12:29:29;-1.80;98.60
13472;DHT22;6808;49.444;11.034;2023-12-04T12:31:55;-1.00;99.00
13472;DHT22;6808;49.444;11.034;2023-12-04T12:34:20;-1.10;99.00
13472;DHT22;6808;49.444;11.034;2023-12-04T12:36:46;-1.70;98.70
13472;DHT22;6808;49.444;11.034;2023-12-04T12:39:13;-1.00;99.30
13472;DHT22;6808;49.444;11.034;2023-12-04T12:41:38;-1.70;98.90
13472;DHT22;6808;49.444;11.034;2023-12-04T12:44:04;-1.60;98.40
13472;DHT22;6808;49.444;11.034;2023-12-04T12:46:31;-1.50;98.50
13472;DHT22;6808;49.444;11.034;2023-12-04T12:48:56;-1.30;98.50
13472;DHT22;6808;49.444;11.034;2023-12-04T12:51:23;-1.70;97.80
13472;DHT22;6808;49.444;11.034;2023-12-04T12:53:49;-1.30;98.20
13472;DHT22;6808;49.444;11.034;2023-12-04T12:56:15;-1.80;98.10
13472;DHT22;6808;49.444;11.034;2023-12-04T12:58:41;-1.20;98.40
13472;DHT22;6808;49.444;11.034;2023-12-04T13:01:10;-1.80;98.50
13472;DHT22;6808;49.444;11.034;2023-12-04T13:03:39;-1.30;98.80
13472;DHT22;6808;49.444;11.034;2023-12-04T13:06:09;-1.30;98.40
13472;DHT22;6808;49.444;11.034;2023-12-04T13:08:35;-1.90;97.90
13472;DHT22;6808;49.444;11.034;2023-12-04T13:11:00;-1.40;98.50
13472;DHT22;6808;49.444;11.034;2023-12-04T13:13:26;-1.10;98.70
13472;DHT22;6808;49.444;11.034;2023-12-04T13:15:52;-1.90;98.30
13472;DHT22;6808;49.444;11.034;2023-12-04T13:18:19;-1.40;98.60
13472;DHT22;6808;49.444;11.034;2023-12-04T13:20:45;-1.90;98.20
13472;DHT22;6808;49.444;11.034;2023-12-04T13:23:11;-1.20;98.70
13472;DHT22;6808;49.444;11.034;2023-12-04T13:25:36;-1.70;98.40
13472;DHT22;6808;49.444;11.034;2023-12-04T13:28:03;-1.50;98.60
13472;DHT22;6808;49.444;11.034;2023-12-04T13:30:28;-1.90;98.20
13472;DHT22;6808;49.444;11.034;2023-12-04T13:32:54;-1.90;98.20
13472;DHT22;6808;49.444;11.034;2023-12-04T13:35:19;-1.70;98.40
13472;DHT22;6808;49.444;11.034;2023-12-04T13:37:45;-1.90;98.20
13472;DHT22;6808;49.444;11.034;2023-12-04T13:40:11;-1.90;98.20
13472;DHT22;6808;49.444;11.034;2023-12-04T13:42:41;-2.00;98.30
13472;DHT22;6808;49.444;11.034;2023-12-04T13:45:25;-1.90;98.60
13472;DHT22;6808;49.444;11.034;2023-12-04T13:47:51;-1.90;98.50
13472;DHT22;6808;49.444;11.034;2023-12-04T13:50:18;-1.90;98.70
13472;DHT22;6808;49.444;11.034;2023-12-04T13:52:44;-1.90;98.90
13472;DHT22;6808;49.444;11.034;2023-12-04T13:55:10;-1.80;99.20
13472;DHT22;6808;49.444;11.034;2023-12-04T13:57:58;-1.80;99.10
13472;DHT22;6808;49.444;11.034;2023-12-04T14:00:24;-1.90;98.90
13472;DHT22;6808;49.444;11.034;2023-12-04T14:02:50;-1.90;99.00
13472;DHT22;6808;49.444;11.034;2023-12-04T14:05:25;-1.90;99.20
13472;DHT22;6808;49.444;11.034;2023-12-04T14:07:51;-1.90;99.40
13472;DHT22;6808;49.444;11.034;2023-12-04T14:10:16;-1.90;99.40
13472;DHT22;6808;49.444;11.034;2023-12-04T14:12:42;-1.90;99.30
13472;DHT22;6808;49.444;11.034;2023-12-04T14:15:08;-1.90;99.40
13472;DHT22;6808;49.444;11.034;2023-12-04T14:17:34;-1.80;99.60
13472;DHT22;6808;49.444;11.034;2023-12-04T14:20:00;-1.80;99.70
13472;DHT22;6808;49.444;11.034;2023-12-04T14:22:25;-1.80;99.60
13472;DHT22;6808;49.444;11.034;2023-12-04T14:24:51;-1.90;99.80
13472;DHT22;6808;49.444;11.034;2023-12-04T14:27:17;-1.80;99.90
13472;DHT22;6808;49.444;11.034;2023-12-04T14:29:43;-1.80;99.90
13472;DHT22;6808;49.444;11.034;2023-12-04T14:32:10;-1.80;99.90
13472;DHT22;6808;49.444;11.034;2023-12-04T14:34:35;-1.80;99.90
13472;DHT22;6808;49.444;11.034;2023-12-04T14:37:01;-1.80;99.90
13472;DHT22;6808;49.444;11.034;2023-12-04T14:39:27;-1.80;99.90
13472;DHT22;6808;49.444;11.034;2023-12-04T14:41:52;-1.80;99.90
13472;DHT22;6808;49.444;11.034;2023-12-04T14:44:18;-1.80;99.90
13472;DHT22;6808;49.444;11.034;2023-12-04T14:46:43;-1.80;99.90
13472;DHT22;6808;49.444;11.034;2023-12-04T14:49:11;-1.90;99.90
13472;DHT22;6808;49.444;11.034;2023-12-04T14:51:36;-1.80;99.90
13472;DHT22;6808;49.444;11.034;2023-12-04T14:54:02;-1.90;99.90
13472;DHT22;6808;49.444;11.034;2023-12-04T14:56:49;-1.90;99.90
13472;DHT22;6808;49.444;11.034;2023-12-04T14:59:35;-1.90;99.90
13472;DHT22;6808;49.444;11.034;2023-12-04T15:02:19;-1.90;99.90
13472;DHT22;6808;49.444;11.034;2023-12-04T15:05:13;-1.90;99.90
13472;DHT22;6808;49.444;11.034;2023-12-04T15:07:59;-1.80;99.90
13472;DHT22;6808;49.444;11.034;2023-12-04T15:10:36;-1.80;99.90
13472;DHT22;6808;49.444;11.034;2023-12-04T15:13:04;-1.80;99.90
13472;DHT22;6808;49.444;11.034;2023-12-04T15:15:30;-1.80;99.90
13472;DHT22;6808;49.444;11.034;2023-12-04T15:18:15;-1.80;99.90
13472;DHT22;6808;49.444;11.034;2023-12-04T15:20:59;-1.80;99.90
13472;DHT22;6808;49.444;11.034;2023-12-04T15:23:25;-1.80;99.90
13472;DHT22;6808;49.444;11.034;2023-12-04T15:25:52;-1.80;99.90
13472;DHT22;6808;49.444;11.034;2023-12-04T15:28:17;-1.90;99.90
13472;DHT22;6808;49.444;11.034;2023-12-04T15:30:48;-1.90;99.90
13472;DHT22;6808;49.444;11.034;2023-12-04T15:33:15;-1.90;99.90
13472;DHT22;6808;49.444;11.034;2023-12-04T15:35:48;-1.90;99.90